sensor_id;sensor_type;location;lat;lon;timestamp;P1;durP1;ratioP1;P2;durP2;ratioP2
28174;SDS011;59417;44.788;10.334;2023-11-19T00:02:01;4.55;;;3.60;;
28174;SDS011;59417;44.788;10.334;2023-11-19T00:04:28;4.93;;;3.67;;
28174;SDS011;59417;44.788;10.334;2023-11-19T00:06:56;4.65;;;3.65;;
28174;SDS011;59417;44.788;10.334;2023-11-19T00:09:29;6.03;;;3.75;;
28174;SDS011;59417;44.788;10.334;2023-11-19T00:11:58;4.75;;;3.97;;
28174;SDS011;59417;44.788;10.334;2023-11-19T00:14:26;6.70;;;4.53;;
28174;SDS011;59417;44.788;10.334;2023-11-19T00:16:55;5.60;;;3.67;;
28174;SDS011;59417;44.788;10.334;2023-11-19T00:19:22;6.43;;;3.63;;
28174;SDS011;59417;44.788;10.334;2023-11-19T00:21:53;6.43;;;4.20;;
28174;SDS011;59417;44.788;10.334;2023-11-19T00:24:20;5.05;;;3.22;;
28174;SDS011;59417;44.788;10.334;2023-11-19T00:26:47;6.07;;;3.80;;
28174;SDS011;59417;44.788;10.334;2023-11-19T00:29:16;5.22;;;4.28;;
28174;SDS011;59417;44.788;10.334;2023-11-19T00:31:47;4.70;;;4.00;;
28174;SDS011;59417;44.788;10.334;2023-11-19T00:34:14;4.43;;;3.58;;
28174;SDS011;59417;44.788;10.334;2023-11-19T00:36:41;6.72;;;4.18;;
28174;SDS011;59417;44.788;10.334;2023-11-19T00:39:12;6.82;;;4.38;;
28174;SDS011;59417;44.788;10.334;2023-11-19T00:41:44;7.68;;;4.30;;
28174;SDS011;59417;44.788;10.334;2023-11-19T00:44:11;7.72;;;4.22;;
28174;SDS011;59417;44.788;10.334;2023-11-19T00:46:38;8.27;;;3.85;;
28174;SDS011;59417;44.788;10.334;2023-11-19T00:49:05;4.93;;;3.78;;
28174;SDS011;59417;44.788;10.334;2023-11-19T00:51:33;7.05;;;3.97;;
28174;SDS011;59417;44.788;10.334;2023-11-19T00:53:59;6.68;;;4.22;;
28174;SDS011;59417;44.788;10.334;2023-11-19T00:56:35;5.63;;;4.05;;
28174;SDS011;59417;44.788;10.334;2023-11-19T00:59:03;5.65;;;3.83;;
28174;SDS011;59417;44.788;10.334;2023-11-19T01:01:30;5.03;;;3.50;;
28174;SDS011;59417;44.788;10.334;2023-11-19T01:03:57;8.35;;;4.43;;
28174;SDS011;59417;44.788;10.334;2023-11-19T01:06:31;5.80;;;3.97;;
28174;SDS011;59417;44.788;10.334;2023-11-19T01:09:04;5.70;;;4.05;;
28174;SDS011;59417;44.788;10.334;2023-11-19T01:11:35;5.20;;;3.30;;
28174;SDS011;59417;44.788;10.334;2023-11-19T01:14:03;5.38;;;3.72;;
28174;SDS011;59417;44.788;10.334;2023-11-19T01:16:30;5.90;;;3.92;;
28174;SDS011;59417;44.788;10.334;2023-11-19T01:18:57;6.25;;;3.75;;
28174;SDS011;59417;44.788;10.334;2023-11-19T01:21:24;6.82;;;3.90;;
28174;SDS011;59417;44.788;10.334;2023-11-19T01:23:56;6.68;;;3.80;;
28174;SDS011;59417;44.788;10.334;2023-11-19T01:28:52;10.35;;;4.30;;
28174;SDS011;59417;44.788;10.334;2023-11-19T01:31:18;6.00;;;3.75;;
28174;SDS011;59417;44.788;10.334;2023-11-19T01:33:46;6.72;;;3.50;;
28174;SDS011;59417;44.788;10.334;2023-11-19T01:36:13;5.40;;;3.22;;
28174;SDS011;59417;44.788;10.334;2023-11-19T01:38:44;5.68;;;3.75;;
28174;SDS011;59417;44.788;10.334;2023-11-19T01:41:12;6.18;;;3.63;;
28174;SDS011;59417;44.788;10.334;2023-11-19T01:43:42;5.03;;;3.45;;
28174;SDS011;59417;44.788;10.334;2023-11-19T01:46:12;6.10;;;3.72;;
28174;SDS011;59417;44.788;10.334;2023-11-19T01:48:41;7.32;;;3.88;;
28174;SDS011;59417;44.788;10.334;2023-11-19T01:51:11;4.85;;;3.95;;
28174;SDS011;59417;44.788;10.334;2023-11-19T01:53:46;5.13;;;3.40;;
28174;SDS011;59417;44.788;10.334;2023-11-19T01:56:16;4.80;;;4.00;;
28174;SDS011;59417;44.788;10.334;2023-11-19T01:58:43;5.85;;;3.90;;
28174;SDS011;59417;44.788;10.334;2023-11-19T02:01:13;6.38;;;4.20;;
28174;SDS011;59417;44.788;10.334;2023-11-19T02:03:39;6.15;;;3.95;;
28174;SDS011;59417;44.788;10.334;2023-11-19T02:06:06;14.60;;;3.95;;
28174;SDS011;59417;44.788;10.334;2023-11-19T02:08:36;8.82;;;4.32;;
28174;SDS011;59417;44.788;10.334;2023-11-19T02:11:09;8.30;;;4.22;;
28174;SDS011;59417;44.788;10.334;2023-11-19T02:13:37;9.52;;;4.40;;
28174;SDS011;59417;44.788;10.334;2023-11-19T02:16:06;6.57;;;4.15;;
28174;SDS011;59417;44.788;10.334;2023-11-19T02:18:35;5.65;;;3.72;;
28174;SDS011;59417;44.788;10.334;2023-11-19T02:21:02;5.95;;;4.15;;
28174;SDS011;59417;44.788;10.334;2023-11-19T02:23:34;8.70;;;3.83;;
28174;SDS011;59417;44.788;10.334;2023-11-19T02:26:24;7.57;;;4.47;;
28174;SDS011;59417;44.788;10.334;2023-11-19T02:28:54;6.75;;;3.97;;
28174;SDS011;59417;44.788;10.334;2023-11-19T02:31:20;5.55;;;3.42;;
28174;SDS011;59417;44.788;10.334;2023-11-19T02:33:49;4.90;;;3.50;;
28174;SDS011;59417;44.788;10.334;2023-11-19T02:36:20;3.97;;;2.53;;
28174;SDS011;59417;44.788;10.334;2023-11-19T02:38:48;3.78;;;2.83;;
28174;SDS011;59417;44.788;10.334;2023-11-19T02:41:17;4.40;;;3.00;;
28174;SDS011;59417;44.788;10.334;2023-11-19T02:43:49;8.63;;;3.45;;
28174;SDS011;59417;44.788;10.334;2023-11-19T02:46:20;5.03;;;3.08;;
28174;SDS011;59417;44.788;10.334;2023-11-19T02:48:48;3.42;;;2.70;;
28174;SDS011;59417;44.788;10.334;2023-11-19T02:51:16;7.05;;;2.95;;
28174;SDS011;59417;44.788;10.334;2023-11-19T02:53:45;3.35;;;3.05;;
28174;SDS011;59417;44.788;10.334;2023-11-19T02:56:14;4.83;;;2.80;;
28174;SDS011;59417;44.788;10.334;2023-11-19T02:58:56;6.72;;;2.75;;
28174;SDS011;59417;44.788;10.334;2023-11-19T03:01:23;3.42;;;2.08;;
28174;SDS011;59417;44.788;10.334;2023-11-19T03:03:57;3.17;;;2.47;;
28174;SDS011;59417;44.788;10.334;2023-11-19T03:06:25;6.60;;;2.10;;
28174;SDS011;59417;44.788;10.334;2023-11-19T03:08:52;2.75;;;2.45;;
28174;SDS011;59417;44.788;10.334;2023-11-19T03:11:21;3.70;;;2.38;;
28174;SDS011;59417;44.788;10.334;2023-11-19T03:13:55;2.28;;;2.08;;
28174;SDS011;59417;44.788;10.334;2023-11-19T03:16:22;2.65;;;2.00;;
28174;SDS011;59417;44.788;10.334;2023-11-19T03:18:48;4.45;;;2.33;;
28174;SDS011;59417;44.788;10.334;2023-11-19T03:21:17;3.15;;;2.65;;
28174;SDS011;59417;44.788;10.334;2023-11-19T03:23:48;3.58;;;2.33;;
28174;SDS011;59417;44.788;10.334;2023-11-19T03:26:17;3.25;;;2.38;;
28174;SDS011;59417;44.788;10.334;2023-11-19T03:28:44;3.38;;;2.45;;
28174;SDS011;59417;44.788;10.334;2023-11-19T03:31:17;3.00;;;2.28;;
28174;SDS011;59417;44.788;10.334;2023-11-19T03:33:44;3.85;;;2.40;;
28174;SDS011;59417;44.788;10.334;2023-11-19T03:36:12;5.65;;;2.67;;
28174;SDS011;59417;44.788;10.334;2023-11-19T03:38:39;3.25;;;2.17;;
28174;SDS011;59417;44.788;10.334;2023-11-19T03:41:12;4.60;;;2.70;;
28174;SDS011;59417;44.788;10.334;2023-11-19T03:43:40;4.03;;;2.53;;
28174;SDS011;59417;44.788;10.334;2023-11-19T03:46:17;5.47;;;2.78;;
28174;SDS011;59417;44.788;10.334;2023-11-19T03:48:50;4.10;;;2.55;;
28174;SDS011;59417;44.788;10.334;2023-11-19T03:51:17;3.88;;;2.20;;
28174;SDS011;59417;44.788;10.334;2023-11-19T03:53:48;5.80;;;2.28;;
28174;SDS011;59417;44.788;10.334;2023-11-19T03:56:14;4.97;;;2.38;;
28174;SDS011;59417;44.788;10.334;2023-11-19T03:58:49;4.47;;;2.60;;
28174;SDS011;59417;44.788;10.334;2023-11-19T04:01:17;4.57;;;2.40;;
28174;SDS011;59417;44.788;10.334;2023-11-19T04:03:48;3.33;;;2.70;;
28174;SDS011;59417;44.788;10.334;2023-11-19T04:06:18;3.90;;;2.42;;
28174;SDS011;59417;44.788;10.334;2023-11-19T04:08:45;3.97;;;2.08;;
28174;SDS011;59417;44.788;10.334;2023-11-19T04:11:19;4.47;;;2.42;;
28174;SDS011;59417;44.788;10.334;2023-11-19T04:13:46;2.88;;;2.28;;
28174;SDS011;59417;44.788;10.334;2023-11-19T04:16:14;3.35;;;2.15;;
28174;SDS011;59417;44.788;10.334;2023-11-19T04:18:42;5.43;;;2.38;;
28174;SDS011;59417;44.788;10.334;2023-11-19T04:21:09;2.30;;;2.10;;
28174;SDS011;59417;44.788;10.334;2023-11-19T04:23:37;8.32;;;2.65;;
28174;SDS011;59417;44.788;10.334;2023-11-19T04:26:06;4.65;;;2.63;;
28174;SDS011;59417;44.788;10.334;2023-11-19T04:28:32;2.85;;;2.40;;
28174;SDS011;59417;44.788;10.334;2023-11-19T04:30:59;2.78;;;2.40;;
28174;SDS011;59417;44.788;10.334;2023-11-19T04:33:27;2.72;;;2.05;;
28174;SDS011;59417;44.788;10.334;2023-11-19T04:35:54;4.57;;;2.45;;
28174;SDS011;59417;44.788;10.334;2023-11-19T04:38:21;2.55;;;2.35;;
28174;SDS011;59417;44.788;10.334;2023-11-19T04:40:48;2.42;;;2.20;;
28174;SDS011;59417;44.788;10.334;2023-11-19T04:43:16;3.67;;;2.25;;
28174;SDS011;59417;44.788;10.334;2023-11-19T04:45:47;4.18;;;2.55;;
28174;SDS011;59417;44.788;10.334;2023-11-19T04:48:16;2.63;;;2.20;;
28174;SDS011;59417;44.788;10.334;2023-11-19T04:50:44;3.47;;;2.15;;
28174;SDS011;59417;44.788;10.334;2023-11-19T04:53:15;3.28;;;2.53;;
28174;SDS011;59417;44.788;10.334;2023-11-19T04:55:46;6.88;;;2.90;;
28174;SDS011;59417;44.788;10.334;2023-11-19T04:58:16;5.75;;;2.60;;
28174;SDS011;59417;44.788;10.334;2023-11-19T05:00:45;2.80;;;2.33;;
28174;SDS011;59417;44.788;10.334;2023-11-19T05:03:12;5.45;;;3.83;;
28174;SDS011;59417;44.788;10.334;2023-11-19T05:05:39;3.35;;;2.30;;
28174;SDS011;59417;44.788;10.334;2023-11-19T05:08:05;4.55;;;2.83;;
28174;SDS011;59417;44.788;10.334;2023-11-19T05:10:32;2.72;;;2.40;;
28174;SDS011;59417;44.788;10.334;2023-11-19T05:12:59;6.82;;;2.75;;
28174;SDS011;59417;44.788;10.334;2023-11-19T05:15:29;6.72;;;2.55;;
28174;SDS011;59417;44.788;10.334;2023-11-19T05:17:55;2.40;;;2.20;;
28174;SDS011;59417;44.788;10.334;2023-11-19T05:20:22;6.20;;;2.20;;
28174;SDS011;59417;44.788;10.334;2023-11-19T05:22:49;3.13;;;2.15;;
28174;SDS011;59417;44.788;10.334;2023-11-19T05:25:17;2.65;;;2.10;;
28174;SDS011;59417;44.788;10.334;2023-11-19T05:27:47;3.15;;;2.10;;
28174;SDS011;59417;44.788;10.334;2023-11-19T05:30:21;2.90;;;2.00;;
28174;SDS011;59417;44.788;10.334;2023-11-19T05:32:53;4.63;;;2.00;;
28174;SDS011;59417;44.788;10.334;2023-11-19T05:35:20;2.53;;;1.95;;
28174;SDS011;59417;44.788;10.334;2023-11-19T05:37:46;2.42;;;2.00;;
28174;SDS011;59417;44.788;10.334;2023-11-19T05:40:17;3.00;;;2.17;;
28174;SDS011;59417;44.788;10.334;2023-11-19T05:42:46;2.57;;;1.67;;
28174;SDS011;59417;44.788;10.334;2023-11-19T05:45:14;4.75;;;2.20;;
28174;SDS011;59417;44.788;10.334;2023-11-19T05:47:41;3.85;;;2.05;;
28174;SDS011;59417;44.788;10.334;2023-11-19T05:50:21;4.68;;;2.28;;
28174;SDS011;59417;44.788;10.334;2023-11-19T05:52:51;2.53;;;2.10;;
28174;SDS011;59417;44.788;10.334;2023-11-19T05:55:19;2.90;;;1.90;;
28174;SDS011;59417;44.788;10.334;2023-11-19T05:57:46;3.15;;;2.00;;
28174;SDS011;59417;44.788;10.334;2023-11-19T06:00:14;3.40;;;1.90;;
28174;SDS011;59417;44.788;10.334;2023-11-19T06:02:41;3.30;;;2.25;;
28174;SDS011;59417;44.788;10.334;2023-11-19T06:05:08;3.60;;;1.95;;
28174;SDS011;59417;44.788;10.334;2023-11-19T06:07:35;2.17;;;1.90;;
28174;SDS011;59417;44.788;10.334;2023-11-19T06:10:07;2.58;;;2.00;;
28174;SDS011;59417;44.788;10.334;2023-11-19T06:12:38;2.63;;;1.77;;
28174;SDS011;59417;44.788;10.334;2023-11-19T06:15:07;4.70;;;1.90;;
28174;SDS011;59417;44.788;10.334;2023-11-19T06:17:35;5.65;;;2.17;;
28174;SDS011;59417;44.788;10.334;2023-11-19T06:22:40;2.50;;;2.20;;
28174;SDS011;59417;44.788;10.334;2023-11-19T06:25:09;3.08;;;2.50;;
28174;SDS011;59417;44.788;10.334;2023-11-19T06:27:47;3.53;;;2.35;;
28174;SDS011;59417;44.788;10.334;2023-11-19T06:30:15;3.50;;;2.13;;
28174;SDS011;59417;44.788;10.334;2023-11-19T06:32:42;2.78;;;2.25;;
28174;SDS011;59417;44.788;10.334;2023-11-19T06:35:09;3.50;;;2.50;;
28174;SDS011;59417;44.788;10.334;2023-11-19T06:37:37;5.63;;;2.50;;
28174;SDS011;59417;44.788;10.334;2023-11-19T06:40:06;2.40;;;1.90;;
28174;SDS011;59417;44.788;10.334;2023-11-19T06:42:35;2.38;;;2.10;;
28174;SDS011;59417;44.788;10.334;2023-11-19T06:45:02;6.30;;;2.47;;
28174;SDS011;59417;44.788;10.334;2023-11-19T06:47:30;4.43;;;2.50;;
28174;SDS011;59417;44.788;10.334;2023-11-19T06:49:58;3.65;;;2.63;;
28174;SDS011;59417;44.788;10.334;2023-11-19T06:52:23;3.28;;;2.40;;
28174;SDS011;59417;44.788;10.334;2023-11-19T06:54:50;2.70;;;2.00;;
28174;SDS011;59417;44.788;10.334;2023-11-19T06:57:18;3.92;;;2.80;;
28174;SDS011;59417;44.788;10.334;2023-11-19T06:59:46;3.67;;;2.30;;
28174;SDS011;59417;44.788;10.334;2023-11-19T07:02:12;4.13;;;2.83;;
28174;SDS011;59417;44.788;10.334;2023-11-19T07:04:40;4.65;;;2.70;;
28174;SDS011;59417;44.788;10.334;2023-11-19T07:07:07;4.68;;;3.13;;
28174;SDS011;59417;44.788;10.334;2023-11-19T07:09:35;3.22;;;2.30;;
28174;SDS011;59417;44.788;10.334;2023-11-19T07:12:02;3.60;;;3.22;;
28174;SDS011;59417;44.788;10.334;2023-11-19T07:14:31;3.60;;;2.80;;
28174;SDS011;59417;44.788;10.334;2023-11-19T07:17:07;5.70;;;3.30;;
28174;SDS011;59417;44.788;10.334;2023-11-19T07:19:36;5.30;;;3.58;;
28174;SDS011;59417;44.788;10.334;2023-11-19T07:22:04;6.88;;;3.00;;
28174;SDS011;59417;44.788;10.334;2023-11-19T07:24:32;7.30;;;3.22;;
28174;SDS011;59417;44.788;10.334;2023-11-19T07:27:00;6.15;;;2.88;;
28174;SDS011;59417;44.788;10.334;2023-11-19T07:29:35;4.25;;;2.92;;
28174;SDS011;59417;44.788;10.334;2023-11-19T07:32:10;4.70;;;3.00;;
28174;SDS011;59417;44.788;10.334;2023-11-19T07:34:41;4.82;;;2.88;;
28174;SDS011;59417;44.788;10.334;2023-11-19T07:37:08;9.38;;;3.30;;
28174;SDS011;59417;44.788;10.334;2023-11-19T07:39:41;5.50;;;3.13;;
28174;SDS011;59417;44.788;10.334;2023-11-19T07:42:09;7.60;;;3.20;;
28174;SDS011;59417;44.788;10.334;2023-11-19T07:44:36;6.03;;;3.38;;
28174;SDS011;59417;44.788;10.334;2023-11-19T07:47:06;4.90;;;3.00;;
28174;SDS011;59417;44.788;10.334;2023-11-19T07:49:34;6.88;;;3.83;;
28174;SDS011;59417;44.788;10.334;2023-11-19T07:52:00;4.18;;;3.30;;
28174;SDS011;59417;44.788;10.334;2023-11-19T07:54:34;4.53;;;3.10;;
28174;SDS011;59417;44.788;10.334;2023-11-19T07:57:03;5.75;;;3.25;;
28174;SDS011;59417;44.788;10.334;2023-11-19T07:59:30;8.52;;;2.85;;
28174;SDS011;59417;44.788;10.334;2023-11-19T08:02:05;5.20;;;3.33;;
28174;SDS011;59417;44.788;10.334;2023-11-19T08:04:38;6.72;;;3.60;;
28174;SDS011;59417;44.788;10.334;2023-11-19T08:07:10;4.28;;;3.53;;
28174;SDS011;59417;44.788;10.334;2023-11-19T08:09:38;7.28;;;4.03;;
28174;SDS011;59417;44.788;10.334;2023-11-19T08:12:04;6.25;;;3.90;;
28174;SDS011;59417;44.788;10.334;2023-11-19T08:14:36;7.00;;;4.72;;
28174;SDS011;59417;44.788;10.334;2023-11-19T08:17:03;7.45;;;4.60;;
28174;SDS011;59417;44.788;10.334;2023-11-19T08:19:35;7.25;;;4.70;;
28174;SDS011;59417;44.788;10.334;2023-11-19T08:22:01;8.57;;;4.85;;
28174;SDS011;59417;44.788;10.334;2023-11-19T08:24:40;7.20;;;4.70;;
28174;SDS011;59417;44.788;10.334;2023-11-19T08:27:07;5.30;;;3.97;;
28174;SDS011;59417;44.788;10.334;2023-11-19T08:29:34;4.78;;;3.75;;
28174;SDS011;59417;44.788;10.334;2023-11-19T08:32:03;7.45;;;4.53;;
28174;SDS011;59417;44.788;10.334;2023-11-19T08:34:32;5.72;;;4.55;;
28174;SDS011;59417;44.788;10.334;2023-11-19T08:37:02;9.38;;;5.10;;
28174;SDS011;59417;44.788;10.334;2023-11-19T08:39:30;8.82;;;4.82;;
28174;SDS011;59417;44.788;10.334;2023-11-19T08:42:04;6.68;;;4.78;;
28174;SDS011;59417;44.788;10.334;2023-11-19T08:44:29;6.40;;;4.63;;
28174;SDS011;59417;44.788;10.334;2023-11-19T08:46:59;10.30;;;6.00;;
28174;SDS011;59417;44.788;10.334;2023-11-19T08:49:28;7.40;;;5.10;;
28174;SDS011;59417;44.788;10.334;2023-11-19T08:51:54;8.05;;;5.60;;
28174;SDS011;59417;44.788;10.334;2023-11-19T08:54:21;9.98;;;5.82;;
28174;SDS011;59417;44.788;10.334;2023-11-19T08:56:50;9.37;;;6.37;;
28174;SDS011;59417;44.788;10.334;2023-11-19T08:59:17;7.88;;;6.20;;
28174;SDS011;59417;44.788;10.334;2023-11-19T09:01:48;8.77;;;6.40;;
28174;SDS011;59417;44.788;10.334;2023-11-19T09:04:13;11.98;;;6.75;;
28174;SDS011;59417;44.788;10.334;2023-11-19T09:09:11;14.07;;;7.93;;
28174;SDS011;59417;44.788;10.334;2023-11-19T09:11:38;9.50;;;7.22;;
28174;SDS011;59417;44.788;10.334;2023-11-19T09:14:08;13.77;;;8.10;;
28174;SDS011;59417;44.788;10.334;2023-11-19T09:16:34;11.73;;;7.68;;
28174;SDS011;59417;44.788;10.334;2023-11-19T09:19:02;18.08;;;10.50;;
28174;SDS011;59417;44.788;10.334;2023-11-19T09:21:33;16.35;;;11.75;;
28174;SDS011;59417;44.788;10.334;2023-11-19T09:24:04;18.23;;;10.25;;
28174;SDS011;59417;44.788;10.334;2023-11-19T09:26:40;18.02;;;12.35;;
28174;SDS011;59417;44.788;10.334;2023-11-19T09:29:10;15.00;;;11.35;;
28174;SDS011;59417;44.788;10.334;2023-11-19T09:31:42;16.50;;;11.77;;
28174;SDS011;59417;44.788;10.334;2023-11-19T09:34:14;19.00;;;12.82;;
28174;SDS011;59417;44.788;10.334;2023-11-19T09:36:43;15.77;;;12.00;;
28174;SDS011;59417;44.788;10.334;2023-11-19T09:39:12;23.45;;;13.13;;
28174;SDS011;59417;44.788;10.334;2023-11-19T09:41:40;19.23;;;13.05;;
28174;SDS011;59417;44.788;10.334;2023-11-19T09:44:08;16.27;;;12.05;;
28174;SDS011;59417;44.788;10.334;2023-11-19T09:46:49;14.98;;;12.52;;
28174;SDS011;59417;44.788;10.334;2023-11-19T09:49:48;20.00;;;12.98;;
28174;SDS011;59417;44.788;10.334;2023-11-19T09:52:23;18.35;;;12.43;;
28174;SDS011;59417;44.788;10.334;2023-11-19T09:55:01;15.27;;;11.68;;
28174;SDS011;59417;44.788;10.334;2023-11-19T09:58:00;16.65;;;12.45;;
28174;SDS011;59417;44.788;10.334;2023-11-19T10:00:49;21.60;;;14.05;;
28174;SDS011;59417;44.788;10.334;2023-11-19T10:03:52;22.10;;;12.95;;
28174;SDS011;59417;44.788;10.334;2023-11-19T10:07:11;16.38;;;11.73;;
28174;SDS011;59417;44.788;10.334;2023-11-19T10:16:28;16.58;;;11.95;;
28174;SDS011;59417;44.788;10.334;2023-11-19T10:19:21;15.75;;;12.38;;
28174;SDS011;59417;44.788;10.334;2023-11-19T10:22:04;17.95;;;12.45;;
28174;SDS011;59417;44.788;10.334;2023-11-19T10:24:34;18.55;;;11.93;;
28174;SDS011;59417;44.788;10.334;2023-11-19T10:27:12;18.35;;;12.35;;
28174;SDS011;59417;44.788;10.334;2023-11-19T10:29:54;20.80;;;10.93;;
28174;SDS011;59417;44.788;10.334;2023-11-19T10:32:28;16.80;;;12.32;;
28174;SDS011;59417;44.788;10.334;2023-11-19T10:35:04;18.30;;;11.00;;
28174;SDS011;59417;44.788;10.334;2023-11-19T10:37:33;16.00;;;11.18;;
28174;SDS011;59417;44.788;10.334;2023-11-19T10:40:04;19.13;;;12.43;;
28174;SDS011;59417;44.788;10.334;2023-11-19T10:42:36;21.15;;;12.55;;
28174;SDS011;59417;44.788;10.334;2023-11-19T10:45:21;16.00;;;12.77;;
28174;SDS011;59417;44.788;10.334;2023-11-19T10:47:51;16.58;;;12.05;;
28174;SDS011;59417;44.788;10.334;2023-11-19T10:50:18;22.50;;;12.77;;
28174;SDS011;59417;44.788;10.334;2023-11-19T10:52:53;19.73;;;11.98;;
28174;SDS011;59417;44.788;10.334;2023-11-19T10:55:36;17.77;;;12.00;;
28174;SDS011;59417;44.788;10.334;2023-11-19T10:58:08;18.15;;;12.88;;
28174;SDS011;59417;44.788;10.334;2023-11-19T11:00:42;18.90;;;12.38;;
28174;SDS011;59417;44.788;10.334;2023-11-19T11:05:46;21.77;;;13.65;;
28174;SDS011;59417;44.788;10.334;2023-11-19T11:08:13;20.13;;;12.85;;
28174;SDS011;59417;44.788;10.334;2023-11-19T11:10:46;15.88;;;11.95;;
28174;SDS011;59417;44.788;10.334;2023-11-19T11:13:30;20.05;;;13.05;;
28174;SDS011;59417;44.788;10.334;2023-11-19T11:16:06;19.23;;;12.25;;
28174;SDS011;59417;44.788;10.334;2023-11-19T11:18:39;19.05;;;12.65;;
28174;SDS011;59417;44.788;10.334;2023-11-19T11:21:43;24.33;;;12.52;;
28174;SDS011;59417;44.788;10.334;2023-11-19T11:31:40;19.05;;;12.82;;
28174;SDS011;59417;44.788;10.334;2023-11-19T11:34:41;21.45;;;12.85;;
28174;SDS011;59417;44.788;10.334;2023-11-19T11:37:47;16.25;;;12.50;;
28174;SDS011;59417;44.788;10.334;2023-11-19T11:40:32;16.98;;;12.38;;
28174;SDS011;59417;44.788;10.334;2023-11-19T11:42:58;19.63;;;12.32;;
28174;SDS011;59417;44.788;10.334;2023-11-19T11:45:58;21.58;;;11.93;;
28174;SDS011;59417;44.788;10.334;2023-11-19T11:48:19;15.93;;;10.75;;
28174;SDS011;59417;44.788;10.334;2023-11-19T11:50:51;18.13;;;12.02;;
28174;SDS011;59417;44.788;10.334;2023-11-19T11:53:26;17.70;;;11.80;;
28174;SDS011;59417;44.788;10.334;2023-11-19T11:55:59;17.98;;;11.50;;
28174;SDS011;59417;44.788;10.334;2023-11-19T11:58:46;18.83;;;11.38;;
28174;SDS011;59417;44.788;10.334;2023-11-19T12:01:14;15.35;;;10.82;;
28174;SDS011;59417;44.788;10.334;2023-11-19T12:03:46;15.77;;;10.65;;
28174;SDS011;59417;44.788;10.334;2023-11-19T12:06:16;14.85;;;9.73;;
28174;SDS011;59417;44.788;10.334;2023-11-19T12:08:46;16.75;;;11.02;;
28174;SDS011;59417;44.788;10.334;2023-11-19T12:11:12;17.75;;;11.27;;
28174;SDS011;59417;44.788;10.334;2023-11-19T12:13:53;12.60;;;9.43;;
28174;SDS011;59417;44.788;10.334;2023-11-19T12:18:57;15.32;;;9.70;;
28174;SDS011;59417;44.788;10.334;2023-11-19T12:21:45;17.02;;;9.85;;
28174;SDS011;59417;44.788;10.334;2023-11-19T12:24:20;14.27;;;9.05;;
28174;SDS011;59417;44.788;10.334;2023-11-19T12:26:47;14.77;;;8.95;;
28174;SDS011;59417;44.788;10.334;2023-11-19T12:29:24;16.15;;;9.90;;
28174;SDS011;59417;44.788;10.334;2023-11-19T12:31:58;14.32;;;9.18;;
28174;SDS011;59417;44.788;10.334;2023-11-19T12:34:29;12.40;;;9.25;;
28174;SDS011;59417;44.788;10.334;2023-11-19T12:36:55;14.07;;;8.60;;
28174;SDS011;59417;44.788;10.334;2023-11-19T12:39:29;12.68;;;8.63;;
28174;SDS011;59417;44.788;10.334;2023-11-19T12:41:59;15.82;;;9.05;;
28174;SDS011;59417;44.788;10.334;2023-11-19T12:44:26;13.05;;;7.70;;
28174;SDS011;59417;44.788;10.334;2023-11-19T12:47:03;10.48;;;6.05;;
28174;SDS011;59417;44.788;10.334;2023-11-19T12:49:33;9.25;;;7.10;;
28174;SDS011;59417;44.788;10.334;2023-11-19T12:52:12;15.23;;;7.38;;
28174;SDS011;59417;44.788;10.334;2023-11-19T12:54:39;15.88;;;8.55;;
28174;SDS011;59417;44.788;10.334;2023-11-19T12:57:10;11.05;;;7.63;;
28174;SDS011;59417;44.788;10.334;2023-11-19T12:59:37;10.73;;;7.38;;
28174;SDS011;59417;44.788;10.334;2023-11-19T13:02:04;13.65;;;7.25;;
28174;SDS011;59417;44.788;10.334;2023-11-19T13:04:33;12.70;;;7.25;;
28174;SDS011;59417;44.788;10.334;2023-11-19T13:07:00;9.40;;;6.80;;
28174;SDS011;59417;44.788;10.334;2023-11-19T13:09:29;12.20;;;7.40;;
28174;SDS011;59417;44.788;10.334;2023-11-19T13:11:56;10.93;;;7.25;;
28174;SDS011;59417;44.788;10.334;2023-11-19T13:14:35;12.75;;;8.25;;
28174;SDS011;59417;44.788;10.334;2023-11-19T13:17:08;13.98;;;7.72;;
28174;SDS011;59417;44.788;10.334;2023-11-19T13:19:34;10.98;;;7.72;;
28174;SDS011;59417;44.788;10.334;2023-11-19T13:22:00;10.57;;;7.00;;
28174;SDS011;59417;44.788;10.334;2023-11-19T13:24:30;13.90;;;7.18;;
28174;SDS011;59417;44.788;10.334;2023-11-19T13:27:00;10.50;;;6.90;;
28174;SDS011;59417;44.788;10.334;2023-11-19T13:29:26;16.02;;;7.20;;
28174;SDS011;59417;44.788;10.334;2023-11-19T13:31:54;10.98;;;7.57;;
28174;SDS011;59417;44.788;10.334;2023-11-19T13:34:21;10.48;;;6.75;;
28174;SDS011;59417;44.788;10.334;2023-11-19T13:36:47;9.57;;;6.55;;
28174;SDS011;59417;44.788;10.334;2023-11-19T13:39:13;12.70;;;6.68;;
28174;SDS011;59417;44.788;10.334;2023-11-19T13:41:48;10.30;;;6.60;;
28174;SDS011;59417;44.788;10.334;2023-11-19T13:44:16;11.05;;;7.35;;
28174;SDS011;59417;44.788;10.334;2023-11-19T13:46:44;11.25;;;7.60;;
28174;SDS011;59417;44.788;10.334;2023-11-19T13:49:11;19.98;;;7.13;;
28174;SDS011;59417;44.788;10.334;2023-11-19T13:51:37;13.18;;;7.50;;
28174;SDS011;59417;44.788;10.334;2023-11-19T13:54:02;11.70;;;7.25;;
28174;SDS011;59417;44.788;10.334;2023-11-19T13:56:29;12.63;;;7.45;;
28174;SDS011;59417;44.788;10.334;2023-11-19T13:59:01;11.68;;;7.13;;
28174;SDS011;59417;44.788;10.334;2023-11-19T14:01:28;11.88;;;8.18;;
28174;SDS011;59417;44.788;10.334;2023-11-19T14:03:54;11.90;;;6.80;;
28174;SDS011;59417;44.788;10.334;2023-11-19T14:06:20;11.40;;;6.93;;
28174;SDS011;59417;44.788;10.334;2023-11-19T14:08:46;11.23;;;7.25;;
28174;SDS011;59417;44.788;10.334;2023-11-19T14:11:12;11.23;;;7.75;;
28174;SDS011;59417;44.788;10.334;2023-11-19T14:13:45;11.50;;;7.18;;
28174;SDS011;59417;44.788;10.334;2023-11-19T14:16:16;12.55;;;7.72;;
28174;SDS011;59417;44.788;10.334;2023-11-19T14:18:43;10.77;;;6.55;;
28174;SDS011;59417;44.788;10.334;2023-11-19T14:21:11;8.85;;;6.03;;
28174;SDS011;59417;44.788;10.334;2023-11-19T14:23:37;9.82;;;6.32;;
28174;SDS011;59417;44.788;10.334;2023-11-19T14:26:06;8.95;;;5.90;;
28174;SDS011;59417;44.788;10.334;2023-11-19T14:28:33;8.05;;;5.57;;
28174;SDS011;59417;44.788;10.334;2023-11-19T14:30:59;10.90;;;6.15;;
28174;SDS011;59417;44.788;10.334;2023-11-19T14:33:25;8.23;;;5.90;;
28174;SDS011;59417;44.788;10.334;2023-11-19T14:35:52;11.68;;;5.85;;
28174;SDS011;59417;44.788;10.334;2023-11-19T14:38:19;12.75;;;5.63;;
28174;SDS011;59417;44.788;10.334;2023-11-19T14:40:45;8.45;;;5.60;;
28174;SDS011;59417;44.788;10.334;2023-11-19T14:43:11;9.45;;;5.50;;
28174;SDS011;59417;44.788;10.334;2023-11-19T14:45:37;12.90;;;5.93;;
28174;SDS011;59417;44.788;10.334;2023-11-19T14:48:06;11.38;;;6.53;;
28174;SDS011;59417;44.788;10.334;2023-11-19T14:50:32;10.63;;;5.72;;
28174;SDS011;59417;44.788;10.334;2023-11-19T14:52:59;13.07;;;7.15;;
28174;SDS011;59417;44.788;10.334;2023-11-19T14:55:46;9.48;;;5.95;;
28174;SDS011;59417;44.788;10.334;2023-11-19T14:58:27;8.73;;;5.78;;
28174;SDS011;59417;44.788;10.334;2023-11-19T15:00:54;9.85;;;6.25;;
28174;SDS011;59417;44.788;10.334;2023-11-19T15:03:47;13.07;;;6.50;;
28174;SDS011;59417;44.788;10.334;2023-11-19T15:06:22;14.13;;;7.05;;
28174;SDS011;59417;44.788;10.334;2023-11-19T15:09:10;14.38;;;7.55;;
28174;SDS011;59417;44.788;10.334;2023-11-19T15:11:54;14.63;;;7.10;;
28174;SDS011;59417;44.788;10.334;2023-11-19T15:14:27;17.17;;;6.95;;
28174;SDS011;59417;44.788;10.334;2023-11-19T15:16:56;13.02;;;6.93;;